Aérodrome :
LOGIN :

S'inscrire | Disclaimer

   EN    FR    IT 

 










Légende :    VFR   VFR Marginal   IFR   IFR Intensif   IFR Très Intensif
Visi : 
Plafond : 
>= 8 km
>= 3000ft
5 à 8 km
1000 à 3000 ft
1500m à 5 km
500 à 1000 ft
800 à 1500m
200 à 500 ft
< 800m
< 200 ft
Symboles :   Orages  Brouillard  Fortes neiges  Fortes précipitations  Vent > 20 kt
SIGMETs :   Divers  Orages  Givrage  Turbulence  Onde Orograph.  Cendres Volcan.






- Altitude de l'aérodrome : 204 ft
- Code IATA : AGF


LFBA - Agen

DERNIER METAR :
  • 061130Z AUTO 12005KT 2700 BR OVC002 05/05 Q1024 BECMG VV///

METARs EXPIRÉS :
  • 061100Z AUTO VRB03KT 1700 R29/1100U BCFG VV/// 05/04 Q1024 BECMG 0500 FG
  • 061030Z AUTO VRB02KT 0650 0600 R29/0800N FG VV/// 05/04 Q1025 BECMG 0500 FG
  • 061000Z AUTO 10004KT 0450 0400 R29/0550N FG VV/// 04/04 Q1025 NOSIG
  • 060930Z AUTO 09003KT 0450 0400 R29/0550N FG VV/// 04/04 Q1025 NOSIG
  • 060900Z AUTO 09005KT 0400 0350 R29/0450N FG VV/// 04/03 Q1025 NOSIG

TAF TAF LFBA
Valide du 06 à 12h jusqu'au 06 à 21h UTC


061100Z 0612/0621 13004KT 0400 FG VV///
PROB30
TEMPO 0612/0621 2000 BR BKN002



MET'MAP, la Météo Aéronautique d'un coup d'oeil ! - Copyright ORBIFLY Décembre 2007 - Disclaimer

ORBIFLY MET'MAP TEAM :

Programmation & Développement : Alexandra Zaïnal
Sur une idée originale de : Baudouin d'Aumeries
Assistance à la programmation : Marc-Olivier Méhu
Soutien technique & logistique : Manuel Goepfert

Contact : metmap@orbifly.com




SOURCES & CREDITS :

   NOAA